createdAt,value
2017-05-13T00:00:08.400Z,99429
2017-05-13T00:01:08.402Z,99428
2017-05-13T00:02:07.960Z,99432
2017-05-13T00:03:08.323Z,99430
2017-05-13T00:04:08.066Z,99430
2017-05-13T00:05:08.108Z,99423
2017-05-13T00:06:08.073Z,99419
2017-05-13T00:07:08.155Z,99428
2017-05-13T00:08:08.249Z,99426
2017-05-13T00:09:08.666Z,99434
2017-05-13T00:10:08.430Z,99424
2017-05-13T00:11:08.477Z,99430
2017-05-13T00:12:09.108Z,99428
2017-05-13T00:13:09.149Z,99429
2017-05-13T00:14:08.587Z,99427
2017-05-13T00:15:08.927Z,99427
2017-05-13T00:16:08.592Z,99424
2017-05-13T00:17:08.632Z,99418
2017-05-13T00:18:09.248Z,99424
2017-05-13T00:19:09.331Z,99422
2017-05-13T00:20:08.880Z,99424
2017-05-13T00:21:09.702Z,99419
2017-05-13T00:22:08.965Z,99415
2017-05-13T00:23:09.551Z,99419
2017-05-13T00:24:09.596Z,99421
2017-05-13T00:25:09.112Z,99424
2017-05-13T00:26:09.708Z,99416
2017-05-13T00:27:10.025Z,99429
2017-05-13T00:28:09.753Z,99424
2017-05-13T00:29:09.755Z,99423
2017-05-13T00:30:09.214Z,99429
2017-05-13T00:31:09.829Z,99424
2017-05-13T00:32:09.908Z,99426
2017-05-13T00:33:10.275Z,99428
2017-05-13T00:34:10.052Z,99420
2017-05-13T00:35:09.559Z,99429
2017-05-13T00:36:10.185Z,99425
2017-05-13T00:37:10.199Z,99428
2017-05-13T00:38:10.321Z,99427
2017-05-13T00:39:09.769Z,99430
2017-05-13T00:40:09.805Z,99432
2017-05-13T00:41:10.411Z,99430
2017-05-13T00:42:10.383Z,99431
2017-05-13T00:43:09.923Z,99432
2017-05-13T00:44:10.455Z,99433
2017-05-13T00:45:10.044Z,99436
2017-05-13T00:46:10.121Z,99432
2017-05-13T00:47:10.130Z,99434
2017-05-13T00:48:10.728Z,99434
2017-05-13T00:49:10.275Z,99430
2017-05-13T00:50:10.260Z,99432
2017-05-13T00:51:10.893Z,99425
2017-05-13T00:52:10.914Z,99430
2017-05-13T00:53:10.417Z,99425
2017-05-13T00:54:10.438Z,99429
2017-05-13T00:55:10.514Z,99416
2017-05-13T00:56:10.492Z,99421
2017-05-13T00:57:11.074Z,99418
2017-05-13T00:58:10.574Z,99419
2017-05-13T00:59:10.604Z,99416
2017-05-13T01:00:10.664Z,99420
2017-05-13T01:01:11.205Z,99411
2017-05-13T01:02:11.298Z,99417
2017-05-13T01:03:10.805Z,99416
2017-05-13T01:04:11.304Z,99416
2017-05-13T01:05:10.804Z,99418
2017-05-13T01:06:10.871Z,99416
2017-05-13T01:07:11.427Z,99414
2017-05-13T01:08:11.509Z,99410
2017-05-13T01:09:11.527Z,99416
2017-05-13T01:10:11.552Z,99417
2017-05-13T01:11:11.619Z,99411
2017-05-13T01:12:11.206Z,99419
2017-05-13T01:13:11.257Z,99414
2017-05-13T01:14:11.262Z,99418
2017-05-13T01:15:11.854Z,99416
2017-05-13T01:16:11.850Z,99415
2017-05-13T01:17:11.323Z,99416
2017-05-13T01:18:11.858Z,99416
2017-05-13T01:19:11.433Z,99413
2017-05-13T01:20:12.013Z,99416
2017-05-13T01:21:11.566Z,99417
2017-05-13T01:22:12.086Z,99405
2017-05-13T01:23:12.157Z,99413
2017-05-13T01:24:11.650Z,99413
2017-05-13T01:25:12.191Z,99414
2017-05-13T01:26:12.266Z,99414
2017-05-13T01:27:12.265Z,99415
2017-05-13T01:28:11.833Z,99414
2017-05-13T01:29:11.833Z,99416
2017-05-13T01:30:12.344Z,99415
2017-05-13T01:31:12.380Z,99415
2017-05-13T01:32:12.456Z,99423
2017-05-13T01:33:11.938Z,99420
2017-05-13T01:34:11.942Z,99425
2017-05-13T01:35:12.002Z,99419
2017-05-13T01:36:11.954Z,99417
2017-05-13T01:37:12.058Z,99424
2017-05-13T01:38:12.147Z,99423
2017-05-13T01:39:12.116Z,99420
2017-05-13T01:40:12.661Z,99421
2017-05-13T01:41:12.157Z,99420
2017-05-13T01:42:12.248Z,99415
2017-05-13T01:43:12.903Z,99415
2017-05-13T01:44:12.990Z,99414
2017-05-13T01:45:12.400Z,99421
2017-05-13T01:46:12.497Z,99422
2017-05-13T01:47:13.086Z,99417
2017-05-13T01:48:13.144Z,99424
2017-05-13T01:49:12.690Z,99420
2017-05-13T01:50:13.240Z,99420
2017-05-13T01:51:12.670Z,99418
2017-05-13T01:52:12.806Z,99417
2017-05-13T01:53:13.417Z,99417
2017-05-13T01:54:12.976Z,99415
2017-05-13T01:55:13.503Z,99415
2017-05-13T01:56:13.597Z,99410
2017-05-13T01:57:13.145Z,99418
2017-05-13T01:58:13.742Z,99421
2017-05-13T01:59:13.825Z,99422
2017-05-13T02:00:13.249Z,99422
2017-05-13T02:01:13.823Z,99426
2017-05-13T02:02:13.377Z,99432
2017-05-13T02:03:13.931Z,99431
2017-05-13T02:04:13.428Z,99427
2017-05-13T02:05:13.473Z,99425
2017-05-13T02:06:13.562Z,99431
2017-05-13T02:07:14.167Z,99434
2017-05-13T02:08:13.713Z,99432
2017-05-13T02:09:13.806Z,99434
2017-05-13T02:10:14.414Z,99436
2017-05-13T02:11:13.960Z,99438
2017-05-13T02:12:13.989Z,99434
2017-05-13T02:13:14.623Z,99434
2017-05-13T02:14:14.640Z,99438
2017-05-13T02:15:14.144Z,99443
2017-05-13T02:16:14.775Z,99447
2017-05-13T02:17:14.192Z,99442
2017-05-13T02:18:14.265Z,99440
2017-05-13T02:19:14.851Z,99440
2017-05-13T02:20:14.363Z,99441
2017-05-13T02:21:14.392Z,99451
2017-05-13T02:22:14.512Z,99445
2017-05-13T02:23:14.507Z,99450
2017-05-13T02:24:15.141Z,99449
2017-05-13T02:25:15.213Z,99449
2017-05-13T02:26:14.704Z,99452
2017-05-13T02:27:14.741Z,99450
2017-05-13T02:28:14.784Z,99449
2017-05-13T02:29:15.359Z,99444
2017-05-13T02:30:14.843Z,99443
2017-05-13T02:31:15.481Z,99456
2017-05-13T02:32:15.541Z,99455
2017-05-13T02:33:15.540Z,99455
2017-05-13T02:34:15.573Z,99455
2017-05-13T02:35:15.064Z,99454
2017-05-13T02:36:15.648Z,99453
2017-05-13T02:37:15.740Z,99456
2017-05-13T02:38:15.214Z,99454
2017-05-13T02:39:15.775Z,99454
2017-05-13T02:40:15.256Z,99448
2017-05-13T02:41:15.824Z,99452
2017-05-13T02:42:15.240Z,99451
2017-05-13T02:43:15.403Z,99456
2017-05-13T02:44:15.450Z,99454
2017-05-13T02:45:15.415Z,99450
2017-05-13T02:46:16.012Z,99455
2017-05-13T02:47:15.543Z,99457
2017-05-13T02:48:15.575Z,99455
2017-05-13T02:49:15.605Z,99459
2017-05-13T02:50:16.495Z,99462
2017-05-13T02:51:16.275Z,99461
2017-05-13T02:52:15.849Z,99464
2017-05-13T02:53:16.403Z,99455
2017-05-13T02:54:16.453Z,99470
2017-05-13T02:55:16.529Z,99463
2017-05-13T02:56:16.078Z,99467
2017-05-13T02:57:16.608Z,99473
2017-05-13T02:58:16.129Z,99476
2017-05-13T02:59:16.176Z,99475
2017-05-13T03:00:16.215Z,99474
2017-05-13T03:01:16.799Z,99475
2017-05-13T03:02:16.243Z,99475
2017-05-13T03:03:16.832Z,99479
2017-05-13T03:04:16.919Z,99477
2017-05-13T03:05:16.941Z,99478
2017-05-13T03:06:16.960Z,99484
2017-05-13T03:07:17.089Z,99482
2017-05-13T03:08:17.098Z,99477
2017-05-13T03:09:16.636Z,99476
2017-05-13T03:10:17.184Z,99484
2017-05-13T03:11:17.254Z,99471
2017-05-13T03:12:16.789Z,99486
2017-05-13T03:13:16.815Z,99485
2017-05-13T03:14:16.898Z,99486
2017-05-13T03:15:16.978Z,99485
2017-05-13T03:16:17.586Z,99483
2017-05-13T03:17:17.078Z,99484
2017-05-13T03:18:17.144Z,99485
2017-05-13T03:19:17.153Z,99483
2017-05-13T03:20:17.737Z,99483
2017-05-13T03:21:17.198Z,99490
2017-05-13T03:22:17.201Z,99486
2017-05-13T03:23:17.795Z,99487
2017-05-13T03:24:17.367Z,99486
2017-05-13T03:25:17.393Z,99490
2017-05-13T03:26:17.412Z,99491
2017-05-13T03:27:17.915Z,99489
2017-05-13T03:28:17.436Z,99490
2017-05-13T03:29:18.007Z,99487
2017-05-13T03:30:17.600Z,99485
2017-05-13T03:31:17.698Z,99490
2017-05-13T03:32:18.294Z,99489
2017-05-13T03:33:17.783Z,99489
2017-05-13T03:34:17.798Z,99488
2017-05-13T03:35:17.919Z,99487
2017-05-13T03:36:18.513Z,99488
2017-05-13T03:37:17.998Z,99480
2017-05-13T03:38:18.629Z,99485
2017-05-13T03:39:18.124Z,99484
2017-05-13T03:40:18.216Z,99488
2017-05-13T03:41:18.184Z,99487
2017-05-13T03:42:18.308Z,99488
2017-05-13T03:43:18.277Z,99482
2017-05-13T03:44:18.322Z,99483
2017-05-13T03:45:18.391Z,99480
2017-05-13T03:46:18.382Z,99475
2017-05-13T03:47:19.002Z,99479
2017-05-13T03:48:19.042Z,99485
2017-05-13T03:49:19.100Z,99488
2017-05-13T03:50:19.134Z,99490
2017-05-13T03:51:19.173Z,99486
2017-05-13T03:52:19.234Z,99487
2017-05-13T03:53:18.728Z,99482
2017-05-13T03:54:18.742Z,99486
2017-05-13T03:55:19.410Z,99477
2017-05-13T03:56:19.379Z,99475
2017-05-13T03:57:18.911Z,99484
2017-05-13T03:58:19.456Z,99483
2017-05-13T03:59:19.021Z,99483
2017-05-13T04:00:19.084Z,99480
2017-05-13T04:01:19.106Z,99486
2017-05-13T04:02:19.157Z,99488
2017-05-13T04:03:19.159Z,99488
2017-05-13T04:04:19.751Z,99488
2017-05-13T04:05:19.314Z,99493
2017-05-13T04:06:19.861Z,99489
2017-05-13T04:07:19.375Z,99494
2017-05-13T04:08:19.451Z,99496
2017-05-13T04:09:19.432Z,99498
2017-05-13T04:10:19.970Z,99503
2017-05-13T04:11:20.010Z,99503
2017-05-13T04:12:19.565Z,99508
2017-05-13T04:13:20.176Z,99505
2017-05-13T04:14:20.149Z,99505
2017-05-13T04:15:20.250Z,99504
2017-05-13T04:16:19.674Z,99505
2017-05-13T04:17:20.260Z,99498
2017-05-13T04:18:20.332Z,99511
2017-05-13T04:19:20.418Z,99505
2017-05-13T04:20:20.490Z,99506
2017-05-13T04:21:20.566Z,99507
2017-05-13T04:22:20.120Z,99513
2017-05-13T04:23:20.645Z,99515
2017-05-13T04:24:20.684Z,99514
2017-05-13T04:25:20.197Z,99512
2017-05-13T04:26:20.773Z,99514
2017-05-13T04:27:20.239Z,99514
2017-05-13T04:28:21.490Z,99519
2017-05-13T04:29:20.359Z,99518
2017-05-13T04:30:20.449Z,99517
2017-05-13T04:31:20.430Z,99520
2017-05-13T04:32:20.432Z,99522
2017-05-13T04:33:20.985Z,99525
2017-05-13T04:34:21.062Z,99519
2017-05-13T04:35:20.545Z,99533
2017-05-13T04:36:20.553Z,99523
2017-05-13T04:37:21.124Z,99534
2017-05-13T04:38:21.203Z,99533
2017-05-13T04:39:21.329Z,99536
2017-05-13T04:40:21.289Z,99540
2017-05-13T04:41:21.368Z,99533
2017-05-13T04:42:20.970Z,99543
2017-05-13T04:43:20.971Z,99543
2017-05-13T04:44:21.565Z,99548
2017-05-13T04:45:21.621Z,99545
2017-05-13T04:46:21.627Z,99545
2017-05-13T04:47:21.186Z,99543
2017-05-13T04:48:21.186Z,99548
2017-05-13T04:49:21.253Z,99553
2017-05-13T04:50:21.291Z,99554
2017-05-13T04:51:21.896Z,99553
2017-05-13T04:52:21.385Z,99554
2017-05-13T04:53:21.458Z,99548
2017-05-13T04:54:22.029Z,99557
2017-05-13T04:55:21.584Z,99555
2017-05-13T04:56:22.127Z,99553
2017-05-13T04:57:22.193Z,99553
2017-05-13T04:58:21.677Z,99557
2017-05-13T04:59:22.231Z,99558
2017-05-13T05:00:21.789Z,99562
2017-05-13T05:01:22.344Z,99560
2017-05-13T05:02:22.401Z,99558
2017-05-13T05:03:22.420Z,99562
2017-05-13T05:04:21.986Z,99560
2017-05-13T05:05:21.939Z,99560
2017-05-13T05:06:22.607Z,99564
2017-05-13T05:07:22.101Z,99564
2017-05-13T05:08:22.720Z,99568
2017-05-13T05:09:22.255Z,99566
2017-05-13T05:10:22.745Z,99570
2017-05-13T05:11:22.287Z,99567
2017-05-13T05:12:22.814Z,99572
2017-05-13T05:13:22.304Z,99568
2017-05-13T05:14:22.346Z,99575
2017-05-13T05:15:22.946Z,99573
2017-05-13T05:16:22.950Z,99571
2017-05-13T05:17:23.011Z,99565
2017-05-13T05:18:23.042Z,99576
2017-05-13T05:19:23.139Z,99580
2017-05-13T05:20:23.184Z,99576
2017-05-13T05:21:23.202Z,99579
2017-05-13T05:22:22.691Z,99583
2017-05-13T05:23:22.772Z,99582
2017-05-13T05:24:23.376Z,99579
2017-05-13T05:25:23.437Z,99574
2017-05-13T05:26:22.993Z,99587
2017-05-13T05:27:23.073Z,99577
2017-05-13T05:28:23.707Z,99586
2017-05-13T05:29:23.785Z,99580
2017-05-13T05:30:23.851Z,99584
2017-05-13T05:31:23.912Z,99587
2017-05-13T05:32:23.980Z,99588
2017-05-13T05:33:23.471Z,99579
2017-05-13T05:34:23.536Z,99589
2017-05-13T05:35:24.060Z,99592
2017-05-13T05:36:24.116Z,99596
2017-05-13T05:37:24.181Z,99589
2017-05-13T05:38:24.590Z,99594
2017-05-13T05:39:24.305Z,99588
2017-05-13T05:40:24.407Z,99597
2017-05-13T05:41:24.493Z,99590
2017-05-13T05:42:24.022Z,99598
2017-05-13T05:43:24.594Z,99598
2017-05-13T05:44:24.833Z,99597
2017-05-13T05:45:24.110Z,99599
2017-05-13T05:46:24.200Z,99598
2017-05-13T05:47:24.291Z,99601
2017-05-13T05:48:24.934Z,99606
2017-05-13T05:49:24.910Z,99605
2017-05-13T05:50:24.704Z,99606
2017-05-13T05:51:24.427Z,99608
2017-05-13T05:52:25.121Z,99603
2017-05-13T05:53:24.529Z,99612
2017-05-13T05:54:25.129Z,99613
2017-05-13T05:55:24.616Z,99613
2017-05-13T05:56:25.501Z,99614
2017-05-13T05:57:25.303Z,99619
2017-05-13T05:58:24.755Z,99622
2017-05-13T05:59:25.349Z,99625
2017-05-13T06:00:24.904Z,99628
2017-05-13T06:01:24.907Z,99629
2017-05-13T06:02:25.198Z,99628
2017-05-13T06:03:25.560Z,99632
2017-05-13T06:04:25.711Z,99627
2017-05-13T06:05:25.129Z,99634
2017-05-13T06:06:25.078Z,99637
2017-05-13T06:07:25.148Z,99639
2017-05-13T06:08:26.051Z,99639
2017-05-13T06:09:25.250Z,99638
2017-05-13T06:10:25.359Z,99643
2017-05-13T06:11:25.961Z,99638
2017-05-13T06:12:26.007Z,99647
2017-05-13T06:13:26.042Z,99636
2017-05-13T06:14:26.376Z,99648
2017-05-13T06:15:26.138Z,99635
2017-05-13T06:16:25.688Z,99651
2017-05-13T06:17:25.701Z,99650
2017-05-13T06:18:26.282Z,99649
2017-05-13T06:19:26.380Z,99655
2017-05-13T06:20:26.726Z,99645
2017-05-13T06:21:25.945Z,99655
2017-05-13T06:22:26.541Z,99657
2017-05-13T06:23:26.681Z,99650
2017-05-13T06:24:26.676Z,99655
2017-05-13T06:25:26.225Z,99653
2017-05-13T06:26:27.135Z,99653
2017-05-13T06:27:26.887Z,99658
2017-05-13T06:28:26.977Z,99653
2017-05-13T06:29:27.075Z,99656
2017-05-13T06:30:26.581Z,99658
2017-05-13T06:31:26.599Z,99656
2017-05-13T06:32:27.416Z,99656
2017-05-13T06:33:26.696Z,99656
2017-05-13T06:34:27.277Z,99655
2017-05-13T06:35:26.759Z,99653
2017-05-13T06:36:27.327Z,99657
2017-05-13T06:37:26.818Z,99661
2017-05-13T06:38:27.632Z,99659
2017-05-13T06:39:27.420Z,99653
2017-05-13T06:40:26.910Z,99660
2017-05-13T06:41:27.471Z,99666
2017-05-13T06:42:27.493Z,99665
2017-05-13T06:43:27.558Z,99671
2017-05-13T06:44:27.941Z,99672
2017-05-13T06:45:27.680Z,99665
2017-05-13T06:46:27.821Z,99671
2017-05-13T06:47:27.874Z,99669
2017-05-13T06:48:27.922Z,99674
2017-05-13T06:49:28.055Z,99676
2017-05-13T06:50:28.330Z,99678
2017-05-13T06:51:28.014Z,99672
2017-05-13T06:52:28.120Z,99682
2017-05-13T06:53:28.124Z,99685
2017-05-13T06:54:27.719Z,99684
2017-05-13T06:55:27.712Z,99682
2017-05-13T06:56:28.062Z,99684
2017-05-13T06:57:27.784Z,99685
2017-05-13T06:58:27.859Z,99690
2017-05-13T06:59:28.411Z,99687
2017-05-13T07:00:29.427Z,99698
2017-05-13T07:01:27.936Z,99690
2017-05-13T07:02:28.790Z,99699
2017-05-13T07:03:28.628Z,99697
2017-05-13T07:04:28.197Z,99700
2017-05-13T07:05:28.754Z,99701
2017-05-13T07:06:28.367Z,99701
2017-05-13T07:07:28.957Z,99700
2017-05-13T07:08:28.676Z,99702
2017-05-13T07:09:28.424Z,99708
2017-05-13T07:10:28.446Z,99703
2017-05-13T07:11:28.557Z,99705
2017-05-13T07:12:29.129Z,99708
2017-05-13T07:13:29.218Z,99706
2017-05-13T07:14:29.499Z,99701
2017-05-13T07:15:29.305Z,99705
2017-05-13T07:16:28.879Z,99699
2017-05-13T07:17:29.430Z,99708
2017-05-13T07:18:29.040Z,99709
2017-05-13T07:19:29.111Z,99706
2017-05-13T07:20:29.472Z,99709
2017-05-13T07:21:29.779Z,99703
2017-05-13T07:22:29.774Z,99704
2017-05-13T07:23:29.305Z,99711
2017-05-13T07:24:29.884Z,99712
2017-05-13T07:25:29.410Z,99719
2017-05-13T07:26:29.708Z,99716
2017-05-13T07:27:30.071Z,99719
2017-05-13T07:28:29.676Z,99714
2017-05-13T07:29:30.291Z,99723
2017-05-13T07:30:29.766Z,99720
2017-05-13T07:31:29.745Z,99723
2017-05-13T07:32:30.087Z,99724
2017-05-13T07:33:29.835Z,99724
2017-05-13T07:34:30.436Z,99728
2017-05-13T07:35:30.041Z,99728
2017-05-13T07:36:30.041Z,99726
2017-05-13T07:37:30.055Z,99728
2017-05-13T07:38:30.312Z,99721
2017-05-13T07:39:30.588Z,99730
2017-05-13T07:40:30.186Z,99735
2017-05-13T07:41:30.193Z,99733
2017-05-13T07:42:30.766Z,99733
2017-05-13T07:43:30.800Z,99741
2017-05-13T07:44:32.573Z,99732
2017-05-13T07:45:30.341Z,99731
2017-05-13T07:46:30.418Z,99731
2017-05-13T07:47:31.002Z,99735
2017-05-13T07:48:30.457Z,99736
2017-05-13T07:49:31.003Z,99739
2017-05-13T07:50:31.456Z,99740
2017-05-13T07:51:31.130Z,99743
2017-05-13T07:52:31.189Z,99744
2017-05-13T07:53:30.710Z,99743
2017-05-13T07:54:30.743Z,99748
2017-05-13T07:55:31.288Z,99744
2017-05-13T07:56:31.124Z,99739
2017-05-13T07:57:31.437Z,99744
2017-05-13T07:58:32.121Z,99742
2017-05-13T07:59:30.939Z,99749
2017-05-13T08:00:31.521Z,99748
2017-05-13T08:01:31.037Z,99754
2017-05-13T08:02:32.073Z,99742
2017-05-13T08:03:31.232Z,99755
2017-05-13T08:04:31.294Z,99752
2017-05-13T08:05:32.389Z,99747
2017-05-13T08:06:31.896Z,99756
2017-05-13T08:07:31.343Z,99745
2017-05-13T08:08:31.698Z,99746
2017-05-13T08:09:31.487Z,99754
2017-05-13T08:10:31.602Z,99756
2017-05-13T08:11:31.658Z,99755
2017-05-13T08:12:32.235Z,99759
2017-05-13T08:13:32.327Z,99760
2017-05-13T08:14:32.628Z,99759
2017-05-13T08:15:32.388Z,99758
2017-05-13T08:16:32.521Z,99758
2017-05-13T08:17:31.999Z,99761
2017-05-13T08:18:32.645Z,99765
2017-05-13T08:19:32.694Z,99765
2017-05-13T08:20:32.476Z,99760
2017-05-13T08:21:32.256Z,99764
2017-05-13T08:22:32.934Z,99763
2017-05-13T08:23:32.945Z,99768
2017-05-13T08:24:32.414Z,99771
2017-05-13T08:25:33.054Z,99773
2017-05-13T08:26:32.851Z,99772
2017-05-13T08:27:32.605Z,99779
2017-05-13T08:28:33.208Z,99778
2017-05-13T08:29:32.732Z,99773
2017-05-13T08:30:32.830Z,99785
2017-05-13T08:31:33.941Z,99777
2017-05-13T08:32:33.683Z,99776
2017-05-13T08:33:32.975Z,99770
2017-05-13T08:34:33.054Z,99771
2017-05-13T08:35:33.551Z,99780
2017-05-13T08:36:33.090Z,99777
2017-05-13T08:37:33.685Z,99784
2017-05-13T08:38:33.948Z,99790
2017-05-13T08:39:33.227Z,99784
2017-05-13T08:40:33.322Z,99788
2017-05-13T08:41:33.401Z,99784
2017-05-13T08:42:34.011Z,99779
2017-05-13T08:51:28.425Z,99792
2017-05-13T08:52:28.185Z,99790
2017-05-13T08:53:28.279Z,99788
2017-05-13T08:54:28.855Z,99790
2017-05-13T08:55:29.645Z,99794
2017-05-13T08:56:28.497Z,99792
2017-05-13T08:57:29.323Z,99784
2017-05-13T08:58:28.579Z,99787
2017-05-13T08:59:28.613Z,99791
2017-05-13T09:00:28.701Z,99789
2017-05-13T09:01:29.278Z,99793
2017-05-13T09:02:29.310Z,99794
2017-05-13T09:03:29.670Z,99800
2017-05-13T09:04:29.405Z,99798
2017-05-13T09:05:29.480Z,99801
2017-05-13T09:06:29.469Z,99794
2017-05-13T09:07:29.465Z,99802
2017-05-13T09:08:29.085Z,99809
2017-05-13T09:09:29.854Z,99804
2017-05-13T09:10:29.079Z,99812
2017-05-13T09:11:29.675Z,99806
2017-05-13T09:12:29.793Z,99815
2017-05-13T09:13:29.258Z,99813
2017-05-13T09:14:29.316Z,99806
2017-05-13T09:15:30.245Z,99813
2017-05-13T09:16:29.474Z,99810
2017-05-13T09:17:29.481Z,99804
2017-05-13T09:18:30.141Z,99813
2017-05-13T09:19:30.216Z,99819
2017-05-13T09:20:29.698Z,99816
2017-05-13T09:21:30.112Z,99833
2017-05-13T09:22:30.415Z,99819
2017-05-13T09:23:29.866Z,99821
2017-05-13T09:24:29.905Z,99813
2017-05-13T09:25:31.545Z,99821
2017-05-13T09:26:30.521Z,99819
2017-05-13T09:27:30.316Z,99820
2017-05-13T09:28:30.129Z,99823
2017-05-13T09:29:30.126Z,99824
2017-05-13T09:30:30.100Z,99822
2017-05-13T09:31:30.231Z,99825
2017-05-13T09:32:30.763Z,99830
2017-05-13T09:33:31.144Z,99826
2017-05-13T09:34:30.392Z,99827
2017-05-13T09:35:31.569Z,99830
2017-05-13T09:36:30.986Z,99826
2017-05-13T09:37:31.027Z,99833
2017-05-13T09:38:30.547Z,99832
2017-05-13T09:39:31.507Z,99837
2017-05-13T09:40:30.698Z,99835
2017-05-13T09:41:31.231Z,99835
2017-05-13T09:42:31.327Z,99837
2017-05-13T09:43:31.331Z,99836
2017-05-13T09:44:30.853Z,99839
2017-05-13T09:45:31.703Z,99833
2017-05-13T09:46:31.974Z,99839
2017-05-13T09:47:30.929Z,99840
2017-05-13T09:48:31.482Z,99833
2017-05-13T09:49:31.586Z,99836
2017-05-13T09:50:31.611Z,99836
2017-05-13T09:51:31.934Z,99839
2017-05-13T09:52:31.167Z,99834
2017-05-13T09:53:31.759Z,99840
2017-05-13T09:54:31.905Z,99838
2017-05-13T09:55:31.850Z,99849
2017-05-13T09:56:31.381Z,99856
2017-05-13T09:57:31.723Z,99852
2017-05-13T09:58:31.975Z,99843
2017-05-13T09:59:31.502Z,99841
2017-05-13T10:00:31.517Z,99845
2017-05-13T10:01:31.595Z,99854
2017-05-13T10:02:31.622Z,99850
2017-05-13T10:03:32.412Z,99849
2017-05-13T10:04:32.225Z,99860
2017-05-13T10:05:32.412Z,99849
2017-05-13T10:06:33.073Z,99855
2017-05-13T10:07:32.422Z,99848
2017-05-13T10:08:31.943Z,99843
2017-05-13T10:09:32.816Z,99855
2017-05-13T10:10:32.637Z,99854
2017-05-13T10:11:32.201Z,99858
2017-05-13T10:12:32.715Z,99844
2017-05-13T10:13:32.827Z,99857
2017-05-13T10:14:33.662Z,99851
2017-05-13T10:15:32.633Z,99848
2017-05-13T10:16:32.402Z,99854
2017-05-13T10:17:32.472Z,99849
2017-05-13T10:18:33.056Z,99859
2017-05-13T10:19:32.507Z,99857
2017-05-13T10:20:33.128Z,99846
2017-05-13T10:21:33.482Z,99847
2017-05-13T10:22:33.244Z,99857
2017-05-13T10:23:32.770Z,99852
2017-05-13T10:24:32.804Z,99857
2017-05-13T10:25:33.361Z,99858
2017-05-13T10:26:33.431Z,99858
2017-05-13T10:27:33.228Z,99860
2017-05-13T10:28:33.000Z,99871
2017-05-13T10:29:33.006Z,99865
2017-05-13T10:30:33.049Z,99864
2017-05-13T10:31:33.640Z,99867
2017-05-13T10:32:33.629Z,99866
2017-05-13T10:33:33.452Z,99850
2017-05-13T10:34:33.764Z,99848
2017-05-13T10:35:34.466Z,99847
2017-05-13T10:36:33.755Z,99854
2017-05-13T10:37:33.236Z,99855
2017-05-13T10:38:33.292Z,99858
2017-05-13T10:39:33.682Z,99856
2017-05-13T10:40:33.476Z,99855
2017-05-13T10:41:33.510Z,99855
2017-05-13T10:42:34.114Z,99852
2017-05-13T10:43:33.737Z,99856
2017-05-13T10:44:34.264Z,99847
2017-05-13T10:45:34.536Z,99841
2017-05-13T10:46:33.748Z,99842
2017-05-13T10:47:34.365Z,99852
2017-05-13T10:48:34.977Z,99849
2017-05-13T10:49:33.816Z,99854
2017-05-13T10:50:34.432Z,99849
2017-05-13T10:51:34.843Z,99852
2017-05-13T10:52:34.027Z,99853
2017-05-13T10:53:34.034Z,99850
2017-05-13T10:54:34.742Z,99850
2017-05-13T10:55:34.701Z,99848
2017-05-13T10:56:34.677Z,99849
2017-05-13T10:57:35.048Z,99848
2017-05-13T10:58:34.237Z,99856
2017-05-13T10:59:34.761Z,99853
2017-05-13T11:00:34.309Z,99853
2017-05-13T11:01:34.416Z,99850
2017-05-13T11:02:35.002Z,99851
2017-05-13T11:03:35.265Z,99845
2017-05-13T11:04:35.089Z,99845
2017-05-13T11:05:34.564Z,99842
2017-05-13T11:06:35.082Z,99845
2017-05-13T11:07:34.618Z,99847
2017-05-13T11:08:35.375Z,99842
2017-05-13T11:09:35.520Z,99847
2017-05-13T11:10:34.684Z,99855
2017-05-13T11:11:34.737Z,99852
2017-05-13T11:12:35.403Z,99850
2017-05-13T11:13:35.355Z,99852
2017-05-13T11:14:35.442Z,99849
2017-05-13T11:15:35.242Z,99852
2017-05-13T11:16:36.281Z,99848
2017-05-13T11:17:35.668Z,99846
2017-05-13T11:18:35.728Z,99847
2017-05-13T11:19:35.238Z,99846
2017-05-13T11:20:35.330Z,99843
2017-05-13T11:21:35.620Z,99848
2017-05-13T11:22:35.968Z,99843
2017-05-13T11:23:35.526Z,99844
2017-05-13T11:24:35.562Z,99842
2017-05-13T11:25:36.172Z,99840
2017-05-13T11:26:35.704Z,99837
2017-05-13T11:27:36.534Z,99839
2017-05-13T11:28:36.301Z,99834
2017-05-13T11:29:35.829Z,99844
2017-05-13T11:30:36.362Z,99844
2017-05-13T11:31:36.647Z,99842
2017-05-13T11:32:35.923Z,99831
2017-05-13T11:33:36.793Z,99837
2017-05-13T11:34:36.018Z,99837
2017-05-13T11:35:36.677Z,99839
2017-05-13T11:36:36.237Z,99830
2017-05-13T11:37:36.262Z,99841
2017-05-13T11:38:36.885Z,99842
2017-05-13T11:39:36.682Z,99847
2017-05-13T11:40:36.482Z,99850
2017-05-13T11:41:37.038Z,99850
2017-05-13T11:42:37.042Z,99844
2017-05-13T11:43:36.478Z,99838
2017-05-13T11:44:37.132Z,99850
2017-05-13T11:45:37.467Z,99845
2017-05-13T11:46:37.168Z,99850
2017-05-13T11:47:36.668Z,99844
2017-05-13T11:48:36.744Z,99850
2017-05-13T11:49:36.723Z,99849
2017-05-13T11:50:36.771Z,99845
2017-05-13T11:51:37.072Z,99852
2017-05-13T11:52:36.910Z,99848
2017-05-13T11:53:36.920Z,99854
2017-05-13T11:54:37.479Z,99851
2017-05-13T11:55:37.002Z,99852
2017-05-13T11:56:37.112Z,99856
2017-05-13T11:57:37.391Z,99855
2017-05-13T11:58:37.713Z,99856
2017-05-13T11:59:37.153Z,99853
2017-05-13T12:00:37.251Z,99862
2017-05-13T12:01:37.289Z,99862
2017-05-13T12:02:37.875Z,99857
2017-05-13T12:03:38.194Z,99861
2017-05-13T12:04:38.047Z,99856
2017-05-13T12:05:37.981Z,99854
2017-05-13T12:06:37.555Z,99860
2017-05-13T12:07:38.694Z,99861
2017-05-13T12:08:38.172Z,99857
2017-05-13T12:09:38.511Z,99853
2017-05-13T12:10:37.788Z,99854
2017-05-13T12:11:37.863Z,99858
2017-05-13T12:12:38.390Z,99851
2017-05-13T12:13:38.488Z,99851
2017-05-13T12:14:38.606Z,99852
2017-05-13T12:15:38.340Z,99843
2017-05-13T12:16:38.692Z,99845
2017-05-13T12:17:38.226Z,99848
2017-05-13T12:18:38.344Z,99851
2017-05-13T12:19:39.004Z,99850
2017-05-13T12:20:38.377Z,99853
2017-05-13T12:21:39.806Z,99853
2017-05-13T12:22:38.909Z,99852
2017-05-13T12:23:38.444Z,99862
2017-05-13T12:24:38.445Z,99856
2017-05-13T12:25:38.447Z,99849
2017-05-13T12:26:38.444Z,99851
2017-05-13T12:27:38.815Z,99859
2017-05-13T12:28:38.570Z,99852
2017-05-13T12:29:38.570Z,99854
2017-05-13T12:30:39.157Z,99856
2017-05-13T12:31:39.828Z,99853
2017-05-13T12:32:39.240Z,99856
2017-05-13T12:33:39.040Z,99853
2017-05-13T12:34:38.816Z,99851
2017-05-13T12:35:39.344Z,99853
2017-05-13T12:36:38.833Z,99853
2017-05-13T12:37:39.423Z,99853
2017-05-13T12:38:39.021Z,99848
2017-05-13T12:39:39.314Z,99852
2017-05-13T12:40:39.003Z,99857
2017-05-13T12:41:39.065Z,99844
2017-05-13T12:42:39.608Z,99850
2017-05-13T12:43:39.585Z,99850
2017-05-13T12:44:39.160Z,99851
2017-05-13T12:45:39.982Z,99844
2017-05-13T12:46:39.722Z,99853
2017-05-13T12:47:39.215Z,99856
2017-05-13T12:48:39.780Z,99852
2017-05-13T12:49:39.882Z,99854
2017-05-13T12:50:39.407Z,99850
2017-05-13T12:51:39.673Z,99851
2017-05-13T12:52:39.992Z,99851
2017-05-13T12:53:40.081Z,99852
2017-05-13T12:54:39.558Z,99852
2017-05-13T12:55:40.167Z,99846
2017-05-13T12:56:40.265Z,99850
2017-05-13T12:57:40.586Z,99856
2017-05-13T12:58:40.293Z,99850
2017-05-13T12:59:40.348Z,99852
2017-05-13T13:00:39.855Z,99852